Time;durP1;ratioP1;P1;durP2;ratioP2;P2;SDS_P1;SDS_P2;PMS_P1;PMS_P2;Temp;Humidity;BMP_temperature;BMP_pressure;BME280_temperature;BME280_humidity;BME280_pressure;Samples;Min_cycle;Max_cycle;Signal;HPM_P1;HPM_P2
2022/03/17 00:02:08;;;;;;;88.95;51.88;;;;;;;4.21;66.54;102282.50;1692530;83;28357;-75
2022/03/17 00:04:34;;;;;;;91.57;51.37;;;;;;;4.20;66.28;102278.61;1691241;84;26180;-75
2022/03/17 00:07:02;;;;;;;90.40;49.25;;;;;;;4.19;66.31;102276.92;1691664;84;25872;-75
2022/03/17 00:09:28;;;;;;;88.33;49.90;;;;;;;4.17;66.22;102277.01;1691490;84;26301;-75
2022/03/17 00:11:54;;;;;;;97.70;54.18;;;;;;;4.19;66.30;102276.92;1694921;84;26546;-74
2022/03/17 00:14:21;;;;;;;95.30;53.55;;;;;;;4.16;66.25;102275.33;1691736;82;27461;-76
2022/03/17 00:16:47;;;;;;;94.10;52.25;;;;;;;4.19;66.19;102278.25;1691065;84;25777;-75
2022/03/17 00:19:13;;;;;;;93.72;51.18;;;;;;;4.21;66.12;102285.62;1689795;84;25864;-75
2022/03/17 00:21:40;;;;;;;91.65;51.15;;;;;;;4.19;65.90;102288.36;1695493;84;26323;-75
2022/03/17 00:24:11;;;;;;;86.30;49.40;;;;;;;4.16;65.86;102289.91;1691158;82;25744;-75
2022/03/17 00:26:39;;;;;;;89.13;48.80;;;;;;;4.15;65.95;102280.75;1693064;84;27458;-76
2022/03/17 00:29:08;;;;;;;81.53;47.98;;;;;;;4.13;65.98;102285.31;1693924;84;25781;-75
2022/03/17 00:31:39;;;;;;;82.05;47.80;;;;;;;4.11;65.97;102287.19;1695881;84;25773;-75
2022/03/17 00:34:07;;;;;;;84.32;48.02;;;;;;;4.08;65.92;102290.06;1687603;82;25862;-75
2022/03/17 00:36:34;;;;;;;84.50;47.48;;;;;;;4.03;65.96;102291.70;1692667;84;25581;-75
2022/03/17 00:39:04;;;;;;;87.50;49.25;;;;;;;4.01;65.92;102297.58;1694410;84;27550;-74
2022/03/17 00:41:32;;;;;;;85.70;48.02;;;;;;;3.96;65.89;102298.86;1690356;84;25877;-75
2022/03/17 00:43:59;;;;;;;83.80;47.65;;;;;;;3.88;65.96;102305.52;1690511;83;25810;-75
2022/03/17 00:46:25;;;;;;;80.10;47.23;;;;;;;3.80;65.98;102306.50;1692487;84;25488;-75
2022/03/17 00:48:52;;;;;;;85.17;49.93;;;;;;;3.76;66.04;102302.83;1692560;84;25878;-75
2022/03/17 00:51:18;;;;;;;86.28;48.65;;;;;;;3.69;66.09;102305.50;1693551;84;27462;-75
2022/03/17 00:53:46;;;;;;;82.60;48.55;;;;;;;3.66;66.22;102307.87;1694475;82;26503;-75
2022/03/17 00:56:12;;;;;;;82.60;48.85;;;;;;;3.61;66.25;102307.34;1676035;84;25828;-76
2022/03/17 00:58:38;;;;;;;86.70;48.65;;;;;;;3.59;66.38;102309.72;1680065;84;26445;-75
2022/03/17 01:01:05;;;;;;;88.17;46.20;;;;;;;3.54;66.45;102314.45;1679997;84;25908;-76
2022/03/17 01:03:31;;;;;;;87.80;49.05;;;;;;;3.49;66.57;102315.22;1682069;84;27525;-76
2022/03/17 01:05:59;;;;;;;83.78;48.85;;;;;;;3.39;66.65;102316.30;1709021;82;25874;-74
2022/03/17 01:08:25;;;;;;;89.70;51.42;;;;;;;3.31;66.86;102313.30;1676451;84;26525;-75
2022/03/17 01:10:52;;;;;;;90.70;49.85;;;;;;;3.24;66.99;102321.72;1690710;84;25836;-75
2022/03/17 01:13:19;;;;;;;89.40;48.98;;;;;;;3.15;67.14;102320.51;1689655;83;26533;-74
2022/03/17 01:15:45;;;;;;;86.17;49.23;;;;;;;3.03;67.26;102321.30;1691628;84;27540;-75
2022/03/17 01:18:11;;;;;;;85.87;47.73;;;;;;;2.96;67.57;102322.62;1679856;84;26679;-75
2022/03/17 01:20:37;;;;;;;86.50;48.02;;;;;;;2.87;67.72;102325.36;1681079;84;25976;-75
2022/03/17 01:23:04;;;;;;;80.22;47.08;;;;;;;2.82;67.72;102331.91;1698121;84;26231;-75
2022/03/17 01:25:32;;;;;;;88.85;51.60;;;;;;;2.74;67.99;102333.68;1700738;82;26495;-75
2022/03/17 01:27:58;;;;;;;87.85;48.48;;;;;;;2.72;68.20;102332.06;1687943;84;27477;-75
2022/03/17 01:30:26;;;;;;;84.52;47.88;;;;;;;2.70;68.37;102328.67;1689358;84;25903;-75
2022/03/17 01:32:52;;;;;;;86.75;50.75;;;;;;;2.68;68.52;102326.59;1686159;84;26014;-75
2022/03/17 01:35:19;;;;;;;94.52;51.00;;;;;;;2.67;68.76;102325.77;1689200;84;25854;-76
2022/03/17 01:37:45;;;;;;;90.25;51.50;;;;;;;2.66;68.74;102331.13;1704383;82;26037;-76
2022/03/17 01:40:12;;;;;;;97.42;49.15;;;;;;;2.65;68.82;102334.73;1688468;84;27543;-75
2022/03/17 01:42:39;;;;;;;87.05;50.85;;;;;;;2.62;68.94;102330.47;1692095;84;25501;-75
2022/03/17 01:45:07;;;;;;;93.80;50.98;;;;;;;2.61;69.12;102329.25;1689876;84;26560;-75
2022/03/17 01:47:36;;;;;;;92.57;51.30;;;;;;;2.59;69.17;102328.50;1686443;84;26883;-75
2022/03/17 01:50:11;;;;;;;98.25;51.40;;;;;;;2.56;69.16;102326.03;1672386;84;25844;-75
2022/03/17 01:52:41;;;;;;;97.60;52.40;;;;;;;2.50;69.13;102325.08;1691252;82;27562;-74
2022/03/17 01:55:10;;;;;;;86.35;49.55;;;;;;;2.41;69.21;102334.42;1688183;84;25864;-75
2022/03/17 01:57:39;;;;;;;95.35;52.85;;;;;;;2.35;69.32;102331.66;1684417;84;25775;-75
2022/03/17 02:00:09;;;;;;;92.00;51.85;;;;;;;2.33;69.48;102336.19;1683263;84;26488;-75
2022/03/17 02:02:42;;;;;;;93.17;49.80;;;;;;;2.30;69.65;102335.07;1690827;84;26594;-76
2022/03/17 02:05:09;;;;;;;87.57;50.43;;;;;;;2.29;69.69;102336.46;1688185;84;27543;-75
2022/03/17 02:07:35;;;;;;;93.60;53.73;;;;;;;2.25;69.73;102334.95;1688993;84;26520;-75
2022/03/17 02:10:02;;;;;;;91.37;51.37;;;;;;;2.21;69.75;102328.14;1687809;84;26494;-75
2022/03/17 02:15:14;;;;;;;93.15;53.38;;;;;;;2.15;69.79;102335.12;1690436;84;25775;-75
2022/03/17 02:17:41;;;;;;;90.42;51.05;;;;;;;2.10;69.95;102335.39;1655194;85;28409;-74
2022/03/17 02:20:12;;;;;;;93.20;51.33;;;;;;;2.06;70.10;102332.55;1699252;82;25852;-75
2022/03/17 02:22:46;;;;;;;92.00;51.25;;;;;;;2.04;70.38;102337.53;1666086;84;25759;-75
2022/03/17 02:25:34;;;;;;;90.50;49.83;;;;;;;2.02;70.69;102334.99;1670559;84;25837;-75
2022/03/17 02:28:07;;;;;;;90.40;50.30;;;;;;;2.02;70.43;102337.64;1672873;84;26465;-75
2022/03/17 02:30:37;;;;;;;89.70;53.10;;;;;;;1.97;70.63;102345.43;1683785;83;27464;-75
2022/03/17 02:33:08;;;;;;;94.45;52.40;;;;;;;1.93;70.71;102343.45;1677418;83;25899;-74
2022/03/17 02:35:37;;;;;;;97.12;53.10;;;;;;;1.89;70.76;102345.89;1681130;83;26034;-75
2022/03/17 02:38:04;;;;;;;90.20;52.27;;;;;;;1.84;70.82;102347.11;1672846;84;26458;-75
2022/03/17 02:40:32;;;;;;;90.53;52.10;;;;;;;1.82;70.97;102348.98;1688722;83;26454;-75
2022/03/17 02:42:58;;;;;;;92.75;51.28;;;;;;;1.83;71.13;102354.64;1694872;82;28153;-75
2022/03/17 02:45:25;;;;;;;97.27;52.75;;;;;;;1.80;71.16;102350.38;1692888;82;25843;-76
2022/03/17 02:47:52;;;;;;;97.47;53.52;;;;;;;1.76;71.07;102354.14;1697941;82;26535;-75
2022/03/17 02:50:19;;;;;;;90.85;51.58;;;;;;;1.73;71.18;102360.08;1692008;82;25992;-75
2022/03/17 02:52:45;;;;;;;95.30;53.00;;;;;;;1.71;71.45;102358.82;1693445;82;26507;-75
2022/03/17 02:55:12;;;;;;;96.63;53.33;;;;;;;1.71;71.38;102360.64;1696937;82;27487;-75
2022/03/17 02:57:40;;;;;;;95.92;52.58;;;;;;;1.69;71.56;102365.98;1693747;84;26414;-75
2022/03/17 03:00:09;;;;;;;97.45;53.15;;;;;;;1.69;71.60;102367.30;1693065;84;26497;-75
2022/03/17 03:02:37;;;;;;;99.25;53.17;;;;;;;1.69;71.77;102373.08;1693232;83;25979;-75
2022/03/17 03:05:05;;;;;;;91.17;50.12;;;;;;;1.67;71.80;102382.39;1694046;84;26232;-75
2022/03/17 03:07:32;;;;;;;96.20;54.10;;;;;;;1.66;71.83;102380.70;1696299;84;28825;-75
2022/03/17 03:09:58;;;;;;;95.38;54.75;;;;;;;1.63;71.77;102378.22;1694693;84;25867;-75
2022/03/17 03:12:25;;;;;;;100.25;55.20;;;;;;;1.63;71.96;102389.25;1692212;82;25825;-75
2022/03/17 03:14:52;;;;;;;96.42;56.18;;;;;;;1.61;72.03;102395.95;1694514;84;26684;-76
2022/03/17 03:17:20;;;;;;;95.77;53.70;;;;;;;1.57;71.96;102387.81;1692231;84;25920;-75
2022/03/17 03:19:49;;;;;;;101.30;56.28;;;;;;;1.53;72.16;102391.11;1694265;84;27475;-75
2022/03/17 03:22:17;;;;;;;103.60;56.42;;;;;;;1.49;72.27;102392.68;1694805;83;25743;-75
2022/03/17 03:24:47;;;;;;;99.80;54.65;;;;;;;1.45;72.41;102398.58;1694765;84;25832;-75
2022/03/17 03:27:14;;;;;;;101.07;55.95;;;;;;;1.35;72.52;102405.30;1693310;84;25763;-75
2022/03/17 03:29:40;;;;;;;100.27;55.45;;;;;;;1.28;72.68;102400.46;1691426;84;26011;-75
2022/03/17 03:32:07;;;;;;;96.00;54.80;;;;;;;1.25;72.79;102407.21;1689809;82;27450;-76
2022/03/17 03:34:34;;;;;;;93.85;51.70;;;;;;;1.23;73.09;102413.05;1693842;84;26001;-76
2022/03/17 03:39:45;;;;;;;102.85;54.00;;;;;;;1.18;73.30;102419.03;1690419;84;25837;-76
2022/03/17 03:42:11;;;;;;;110.35;54.75;;;;;;;1.16;73.43;102428.81;1694318;82;26296;-76
2022/03/17 03:44:38;;;;;;;101.85;55.63;;;;;;;1.17;73.60;102426.58;1692921;84;27475;-75
2022/03/17 03:47:07;;;;;;;98.92;55.98;;;;;;;1.14;73.29;102434.19;1691177;84;26025;-75
2022/03/17 03:49:33;;;;;;;94.13;54.08;;;;;;;1.10;73.22;102435.75;1693255;84;25895;-76
2022/03/17 03:52:00;;;;;;;104.50;56.18;;;;;;;1.07;73.21;102442.52;1691012;82;25785;-75
2022/03/17 03:54:26;;;;;;;96.70;54.08;;;;;;;1.04;73.30;102440.89;1689138;84;26066;-75
2022/03/17 03:56:56;;;;;;;94.70;53.52;;;;;;;1.05;73.36;102443.08;1690280;84;27463;-75
2022/03/17 03:59:25;;;;;;;94.07;53.55;;;;;;;1.02;73.29;102437.48;1687671;84;26560;-75
2022/03/17 04:01:58;;;;;;;98.87;53.68;;;;;;;1.00;73.42;102450.37;1683075;84;26094;-75
2022/03/17 04:04:26;;;;;;;96.17;53.25;;;;;;;0.99;73.58;102445.55;1689815;84;27324;-75
2022/03/17 04:07:01;;;;;;;103.05;55.58;;;;;;;0.99;73.59;102442.91;1689052;84;26561;-74
2022/03/17 04:09:31;;;;;;;103.22;57.03;;;;;;;1.01;73.85;102441.50;1688270;84;28253;-75
2022/03/17 04:11:57;;;;;;;97.40;55.67;;;;;;;1.00;73.79;102443.31;1682379;84;25964;-75
2022/03/17 04:14:23;;;;;;;102.67;56.83;;;;;;;0.98;73.73;102445.64;1674481;84;26507;-75
2022/03/17 04:16:50;;;;;;;108.85;56.70;;;;;;;0.96;73.72;102454.10;1689997;84;25873;-75
2022/03/17 04:19:17;;;;;;;103.90;57.78;;;;;;;0.90;73.63;102462.34;1688202;84;25844;-75
2022/03/17 04:21:45;;;;;;;100.20;55.90;;;;;;;0.86;73.76;102460.31;1689848;84;27476;-76
2022/03/17 04:24:11;;;;;;;106.05;57.33;;;;;;;0.81;73.63;102464.13;1688658;84;26469;-75
2022/03/17 04:26:38;;;;;;;101.27;56.55;;;;;;;0.74;73.78;102472.36;1682900;83;25870;-76
2022/03/17 04:29:04;;;;;;;101.07;56.88;;;;;;;0.69;73.93;102469.09;1675103;84;26539;-76
2022/03/17 04:31:31;;;;;;;107.25;56.05;;;;;;;0.67;73.99;102469.64;1673009;84;26723;-75
2022/03/17 04:33:57;;;;;;;99.50;57.15;;;;;;;0.66;74.10;102471.88;1672703;83;27454;-75
2022/03/17 04:36:23;;;;;;;101.00;56.50;;;;;;;0.66;74.21;102474.52;1673513;84;25813;-75
2022/03/17 04:38:50;;;;;;;104.17;57.75;;;;;;;0.66;74.30;102476.33;1675033;84;25863;-75
2022/03/17 04:41:17;;;;;;;102.60;56.30;;;;;;;0.66;74.37;102481.59;1665426;84;26259;-75
2022/03/17 04:43:43;;;;;;;110.50;60.48;;;;;;;0.66;74.53;102492.14;1666486;84;25980;-75
2022/03/17 04:46:10;;;;;;;106.05;57.25;;;;;;;0.64;74.73;102488.24;1673867;84;27487;-75
2022/03/17 04:48:37;;;;;;;99.32;56.75;;;;;;;0.65;74.76;102494.37;1670745;84;26368;-76
2022/03/17 04:51:05;;;;;;;103.75;56.37;;;;;;;0.63;74.75;102491.83;1672561;84;25994;-75
2022/03/17 04:53:32;;;;;;;104.85;55.65;;;;;;;0.64;74.85;102494.84;1672761;84;26425;-74
2022/03/17 04:56:08;;;;;;;102.42;56.55;;;;;;;0.62;74.87;102499.34;1702124;83;25824;-75
2022/03/17 04:58:37;;;;;;;109.52;59.63;;;;;;;0.59;74.82;102496.02;1699790;83;28339;-75
2022/03/17 05:01:05;;;;;;;104.58;55.40;;;;;;;0.55;75.02;102494.00;1701711;83;25910;-75
2022/03/17 05:03:33;;;;;;;99.55;56.48;;;;;;;0.51;75.05;102493.73;1695368;83;26538;-75
2022/03/17 05:06:00;;;;;;;101.90;57.45;;;;;;;0.51;75.04;102497.70;1701216;83;26408;-75
2022/03/17 05:08:26;;;;;;;101.25;55.63;;;;;;;0.49;75.03;102496.09;1699632;83;26185;-75
2022/03/17 05:10:53;;;;;;;107.05;57.33;;;;;;;0.49;74.92;102498.73;1696884;83;27716;-75
2022/03/17 05:13:25;;;;;;;108.12;56.45;;;;;;;0.45;74.97;102495.37;1697422;83;25855;-76
2022/03/17 05:15:54;;;;;;;115.50;58.98;;;;;;;0.46;75.01;102501.50;1698589;83;25940;-75
2022/03/17 05:18:20;;;;;;;118.60;59.20;;;;;;;0.45;75.05;102500.64;1703957;83;25963;-75
2022/03/17 05:20:47;;;;;;;110.12;59.58;;;;;;;0.43;75.17;102503.82;1701302;83;25680;-75
2022/03/17 05:23:19;;;;;;;119.90;61.13;;;;;;;0.42;75.29;102505.22;1701463;83;28261;-75
2022/03/17 05:25:48;;;;;;;114.25;57.50;;;;;;;0.43;75.39;102510.87;1700959;83;26533;-75
2022/03/17 05:28:15;;;;;;;114.10;60.90;;;;;;;0.44;75.45;102517.41;1701360;83;25866;-75
2022/03/17 05:30:43;;;;;;;110.63;57.38;;;;;;;0.44;75.49;102509.50;1665022;84;26540;-74
2022/03/17 05:33:14;;;;;;;117.90;61.00;;;;;;;0.44;75.56;102514.77;1681887;84;25893;-75
2022/03/17 05:35:40;;;;;;;119.30;60.63;;;;;;;0.44;75.63;102516.55;1682988;84;28349;-75
2022/03/17 05:38:07;;;;;;;112.65;58.85;;;;;;;0.43;75.64;102515.69;1677614;84;25973;-75
2022/03/17 05:40:34;;;;;;;109.20;57.93;;;;;;;0.44;75.80;102524.00;1679731;84;25948;-75
2022/03/17 05:43:06;;;;;;;108.55;59.48;;;;;;;0.43;75.89;102523.59;1678078;84;26535;-75
2022/03/17 05:45:33;;;;;;;112.70;60.03;;;;;;;0.43;75.99;102528.86;1678822;84;25861;-75
2022/03/17 05:48:03;;;;;;;115.62;59.70;;;;;;;0.46;76.20;102531.81;1677419;84;27461;-75
2022/03/17 05:50:32;;;;;;;113.85;60.92;;;;;;;;;;1682028;84;25829;-75
2022/03/17 05:52:58;;;;;;;106.10;58.02;;;;;;;0.43;76.41;102518.31;1679968;84;26019;-75
2022/03/17 05:55:26;;;;;;;110.35;59.55;;;;;;;0.42;76.42;102516.62;1701809;82;25921;-75
2022/03/17 05:57:54;;;;;;;118.77;60.85;;;;;;;0.40;76.63;102514.98;1705424;82;25917;-75
2022/03/17 06:00:25;;;;;;;111.15;57.80;;;;;;;0.44;77.06;102516.55;1710115;82;27468;-75
2022/03/17 06:02:52;;;;;;;104.35;56.42;;;;;;;0.46;77.21;102514.23;1709811;82;26034;-75
2022/03/17 06:05:20;;;;;;;100.02;56.48;;;;;;;0.50;77.28;102517.09;1704118;82;25956;-75
2022/03/17 06:07:50;;;;;;;100.70;54.15;;;;;;;0.53;77.58;102525.33;1706788;83;26506;-75
2022/03/17 06:10:23;;;;;;;103.97;55.63;;;;;;;0.59;77.70;102534.25;1706295;83;26500;-75
2022/03/17 06:12:52;;;;;;;100.07;54.30;;;;;;;0.64;77.80;102530.92;1704949;83;27527;-75
2022/03/17 06:15:21;;;;;;;104.97;55.25;;;;;;;0.69;77.88;102527.57;1704812;83;25985;-75
2022/03/17 06:17:51;;;;;;;98.00;54.80;;;;;;;0.76;77.94;102531.63;1706893;83;25832;-75
2022/03/17 06:20:20;;;;;;;96.10;52.85;;;;;;;0.82;78.13;102540.54;1705822;83;25929;-75
2022/03/17 06:22:50;;;;;;;97.65;55.30;;;;;;;0.90;78.28;102538.36;1706253;83;25940;-75
2022/03/17 06:25:20;;;;;;;95.22;54.95;;;;;;;1.07;78.70;102538.35;1705600;83;27541;-75
2022/03/17 06:27:48;;;;;;;100.53;55.77;;;;;;;1.07;78.70;102538.35;1702870;83;25808;-76
2022/03/17 06:30:22;;;;;;;105.32;57.67;;;;;;;1.17;78.65;102540.93;1683196;83;25721;-75
2022/03/17 06:32:50;;;;;;;104.97;58.15;;;;;;;1.26;78.98;102540.42;1703733;83;26765;-75
2022/03/17 06:35:19;;;;;;;100.53;55.70;;;;;;;1.35;78.88;102546.55;1707960;83;25994;-75
2022/03/17 06:37:50;;;;;;;110.08;58.55;;;;;;;1.47;79.05;102550.34;1705042;82;27455;-76
2022/03/17 06:40:17;;;;;;;102.22;59.98;;;;;;;1.60;79.11;102560.65;1707729;82;25966;-75
2022/03/17 06:42:45;;;;;;;101.82;58.48;;;;;;;1.72;79.11;102558.66;1706892;82;25927;-74
2022/03/17 06:45:12;;;;;;;102.12;56.77;;;;;;;1.84;79.03;102561.95;1705839;82;27023;-75
2022/03/17 06:47:39;;;;;;;104.85;58.05;;;;;;;1.94;78.98;102567.14;1709187;82;25860;-75
2022/03/17 06:50:07;;;;;;;125.87;65.28;;;;;;;2.06;78.82;102566.46;1709336;82;27515;-75
2022/03/17 06:52:34;;;;;;;182.22;81.45;;;;;;;2.17;78.98;102568.05;1708839;82;25751;-75
2022/03/17 06:55:01;;;;;;;124.60;67.65;;;;;;;2.28;78.65;102576.24;1709478;82;25761;-75
2022/03/17 06:57:27;;;;;;;104.00;59.00;;;;;;;2.39;78.50;102571.67;1707758;82;25825;-75
2022/03/17 06:59:54;;;;;;;103.20;60.38;;;;;;;2.48;78.47;102568.98;1707991;82;25991;-76
2022/03/17 07:02:20;;;;;;;103.32;58.83;;;;;;;2.58;78.36;102576.77;1708985;82;27459;-75
2022/03/17 07:04:47;;;;;;;141.05;89.83;;;;;;;2.67;78.17;102575.78;1707169;83;26508;-75
2022/03/17 07:07:14;;;;;;;108.72;60.38;;;;;;;2.75;78.11;102574.87;1706585;83;25918;-75
2022/03/17 07:09:41;;;;;;;122.92;75.47;;;;;;;2.85;78.21;102575.17;1702673;83;26548;-75
2022/03/17 07:12:10;;;;;;;125.70;74.90;;;;;;;2.94;78.03;102575.50;1706518;83;25794;-75
2022/03/17 07:14:36;;;;;;;106.90;63.73;;;;;;;3.03;77.81;102580.72;1708590;82;27475;-75
2022/03/17 07:17:03;;;;;;;102.32;60.67;;;;;;;3.09;77.73;102581.22;1714231;82;25917;-75
2022/03/17 07:19:30;;;;;;;101.00;54.88;;;;;;;3.19;77.81;102585.98;1701222;82;25907;-75
2022/03/17 07:21:57;;;;;;;122.05;66.60;;;;;;;3.28;77.47;102584.08;1707242;83;25820;-75
2022/03/17 07:24:24;;;;;;;113.40;61.83;;;;;;;3.38;77.35;102591.38;1704970;83;25778;-75
2022/03/17 07:26:50;;;;;;;105.85;57.08;;;;;;;3.46;77.20;102588.28;1706546;83;28780;-75
2022/03/17 07:29:17;;;;;;;102.38;59.10;;;;;;;3.56;77.12;102594.26;1705859;83;25928;-75
2022/03/17 07:31:43;;;;;;;97.82;55.58;;;;;;;3.63;77.02;102592.95;1705838;83;25775;-75
2022/03/17 07:34:10;;;;;;;86.53;50.90;;;;;;;3.70;76.77;102594.75;1706200;83;25863;-75
2022/03/17 07:36:36;;;;;;;92.33;53.17;;;;;;;3.76;76.15;102602.32;1705793;83;26243;-75
2022/03/17 07:39:03;;;;;;;85.03;50.38;;;;;;;3.84;76.24;102609.31;1705495;83;27442;-75
2022/03/17 07:41:31;;;;;;;93.75;51.90;;;;;;;3.89;76.00;102606.75;1708370;83;25960;-75
2022/03/17 07:44:00;;;;;;;87.33;53.17;;;;;;;3.99;75.84;102611.48;1705986;83;25595;-75
2022/03/17 07:46:42;;;;;;;97.78;53.35;;;;;;;4.07;75.66;102606.09;1703935;83;25873;-75
2022/03/17 07:49:16;;;;;;;90.20;49.80;;;;;;;4.16;75.53;102604.19;1693150;82;25955;-75
2022/03/17 07:51:43;;;;;;;81.87;48.17;;;;;;;4.27;75.30;102600.85;1706681;82;27506;-75
2022/03/17 07:54:09;;;;;;;82.00;49.05;;;;;;;4.36;75.01;102600.28;1709978;82;25763;-75
2022/03/17 07:56:36;;;;;;;89.95;50.33;;;;;;;4.43;74.70;102603.75;1702993;83;26016;-75
2022/03/17 07:59:03;;;;;;;85.57;48.98;;;;;;;4.51;74.33;102613.39;1706917;83;26284;-76
2022/03/17 08:01:29;;;;;;;80.92;46.42;;;;;;;4.59;74.51;102609.78;1701870;83;26387;-76
2022/03/17 08:03:56;;;;;;;85.57;48.60;;;;;;;4.68;74.42;102610.49;1705093;83;27452;-75
2022/03/17 08:06:23;;;;;;;88.17;50.08;;;;;;;4.79;73.97;102620.41;1704426;83;25728;-75
2022/03/17 08:08:50;;;;;;;83.10;48.30;;;;;;;4.89;74.39;102624.66;1697204;84;25781;-75
2022/03/17 08:11:16;;;;;;;83.10;47.98;;;;;;;4.98;73.77;102627.57;1700947;84;26558;-76
2022/03/17 08:13:42;;;;;;;81.80;47.90;;;;;;;5.07;73.45;102632.25;1704724;84;25808;-75
2022/03/17 08:16:10;;;;;;;86.53;48.23;;;;;;;5.15;72.86;102628.62;1696871;84;27553;-75
2022/03/17 08:18:38;;;;;;;122.35;59.55;;;;;;;5.22;73.12;102623.25;1718478;83;25851;-76
2022/03/17 08:21:05;;;;;;;91.45;49.73;;;;;;;5.30;72.78;102635.53;1710000;83;25367;-75
2022/03/17 08:23:32;;;;;;;79.75;46.85;;;;;;;5.39;72.52;102627.42;1692809;84;25790;-76
2022/03/17 08:25:58;;;;;;;75.03;43.70;;;;;;;5.49;72.92;102622.70;1701170;84;25840;-76
2022/03/17 08:28:25;;;;;;;79.60;46.18;;;;;;;5.61;72.61;102622.35;1697703;84;27527;-76
2022/03/17 08:30:52;;;;;;;76.72;45.17;;;;;;;5.71;72.15;102622.58;1699306;84;25309;-75
2022/03/17 08:33:18;;;;;;;82.67;47.75;;;;;;;5.80;72.15;102628.57;1696689;82;25893;-76
2022/03/17 08:35:45;;;;;;;104.05;55.52;;;;;;;5.89;71.48;102621.31;1697459;84;25903;-76
2022/03/17 08:38:12;;;;;;;131.63;60.90;;;;;;;5.98;71.42;102618.02;1693860;84;25772;-77
2022/03/17 08:40:42;;;;;;;79.60;48.38;;;;;;;6.08;70.82;102616.41;1699640;84;46971;-75
2022/03/17 08:43:09;;;;;;;92.22;50.48;;;;;;;6.16;70.70;102614.90;1699131;82;25831;-75
2022/03/17 08:51:09;;;;;;;101.33;57.25;;;;;;;6.47;69.70;102621.54;1695981;84;26187;-76
2022/03/17 08:53:36;;;;;;;79.87;49.98;;;;;;;6.55;68.76;102623.16;1699485;84;28317;-75
2022/03/17 08:56:03;;;;;;;73.65;42.50;;;;;;;6.58;68.04;102621.61;1697742;84;25963;-75
2022/03/17 08:58:30;;;;;;;69.85;42.13;;;;;;;6.63;67.27;102618.62;1696991;84;25310;-76
2022/03/17 09:00:59;;;;;;;77.47;43.13;;;;;;;6.72;67.59;102621.92;1695162;83;26921;-75
2022/03/17 09:03:26;;;;;;;75.15;44.63;;;;;;;6.81;66.82;102628.77;1695824;84;25824;-77
2022/03/17 09:05:52;;;;;;;71.20;41.35;;;;;;;6.89;67.61;102629.52;1695667;84;28764;-76
2022/03/17 09:08:19;;;;;;;72.82;41.00;;;;;;;6.95;67.34;102622.39;1698970;84;25773;-76
2022/03/17 09:10:46;;;;;;;64.50;39.83;;;;;;;7.07;67.30;102628.16;1698669;84;25935;-76
2022/03/17 09:13:13;;;;;;;67.62;38.25;;;;;;;7.18;66.82;102627.35;1698263;84;25826;-76
2022/03/17 09:15:41;;;;;;;68.28;38.88;;;;;;;7.27;66.49;102631.48;1699245;84;25983;-76
2022/03/17 09:18:11;;;;;;;63.48;37.35;;;;;;;7.34;65.87;102630.06;1694754;84;28581;-76
2022/03/17 09:20:39;;;;;;;65.70;38.35;;;;;;;7.41;65.84;102636.64;1696308;84;25758;-75
2022/03/17 09:23:06;;;;;;;63.58;37.05;;;;;;;7.46;65.60;102637.13;1697393;82;25995;-76
2022/03/17 09:25:34;;;;;;;69.92;38.95;;;;;;;7.52;64.73;102642.01;1702965;84;26571;-77
2022/03/17 09:28:01;;;;;;;59.13;35.43;;;;;;;7.53;64.96;102638.36;1697843;84;25966;-76
2022/03/17 09:30:27;;;;;;;60.20;37.65;;;;;;;7.57;64.63;102646.48;1696227;84;27439;-76
2022/03/17 09:32:54;;;;;;;57.98;35.55;;;;;;;7.65;64.56;102633.91;1696308;84;25764;-76
2022/03/17 09:35:22;;;;;;;56.28;35.33;;;;;;;7.74;64.37;102635.88;1696981;84;25878;-76
2022/03/17 09:37:49;;;;;;;60.92;35.90;;;;;;;7.84;64.26;102639.52;1696527;84;25770;-76
2022/03/17 09:40:15;;;;;;;57.30;35.20;;;;;;;7.95;63.76;102641.34;1696524;83;25958;-75
2022/03/17 09:42:42;;;;;;;64.15;35.58;;;;;;;7.98;63.37;102642.42;1695551;84;27486;-75
2022/03/17 09:45:10;;;;;;;60.85;36.65;;;;;;;8.00;62.55;102645.84;1686018;84;25777;-75
2022/03/17 09:47:40;;;;;;;54.83;33.58;;;;;;;8.06;62.73;102648.03;1700088;84;25982;-76
2022/03/17 09:50:10;;;;;;;56.50;34.85;;;;;;;8.12;62.83;102647.54;1696402;84;26713;-75
2022/03/17 09:52:44;;;;;;;55.63;34.63;;;;;;;8.18;62.59;102644.38;1697650;84;25332;-76
2022/03/17 09:55:11;;;;;;;56.13;35.45;;;;;;;8.24;62.01;102639.41;1702309;84;27457;-74
2022/03/17 09:57:42;;;;;;;54.63;34.00;;;;;;;8.30;60.83;102644.28;1669357;84;26654;-81
2022/03/17 10:00:12;;;;;;;55.52;34.25;;;;;;;8.34;61.57;102643.58;1699995;84;26544;-80
2022/03/17 10:02:39;;;;;;;51.02;34.27;;;;;;;8.39;61.30;102642.22;1701888;84;25849;-77
2022/03/17 10:05:11;;;;;;;54.25;32.20;;;;;;;8.46;61.23;102641.24;1699835;84;26455;-77
2022/03/17 10:07:35;;;;;;;56.00;34.33;;;;;;;8.55;61.20;102643.18;1694217;84;27537;-77
2022/03/17 10:10:03;;;;;;;52.30;33.02;;;;;;;8.63;61.16;102645.22;1699827;84;25935;-76
2022/03/17 10:12:32;;;;;;;57.85;33.83;;;;;;;8.67;60.92;102648.00;1700864;82;25325;-77
2022/03/17 10:14:59;;;;;;;55.92;34.92;;;;;;;8.71;60.23;102641.42;1696805;84;26456;-77
2022/03/17 10:17:41;;;;;;;56.60;36.15;;;;;;;8.76;60.36;102640.58;1699595;84;25648;-78
2022/03/17 10:20:25;;;;;;;57.43;35.25;;;;;;;8.78;58.77;102637.29;1699392;84;28785;-77
2022/03/17 10:22:58;;;;;;;54.73;36.05;;;;;;;8.81;59.15;102637.88;1698449;84;25846;-77
2022/03/17 10:25:29;;;;;;;55.40;34.38;;;;;;;8.83;59.12;102633.77;1699074;84;25793;-78
2022/03/17 10:27:57;;;;;;;52.13;32.23;;;;;;;8.87;58.97;102625.85;1704126;84;25845;-77
2022/03/17 10:30:35;;;;;;;57.98;33.73;;;;;;;8.94;59.23;102627.88;1700505;84;25861;-77
2022/03/17 10:33:11;;;;;;;56.30;33.92;;;;;;;9.03;57.65;102631.13;1700624;84;28209;-78
2022/03/17 10:35:38;;;;;;;55.30;33.55;;;;;;;9.06;58.29;102626.02;1696778;83;26033;-77
2022/03/17 10:38:19;;;;;;;52.58;30.88;;;;;;;9.12;56.86;102623.69;1701396;84;26582;-78
2022/03/17 10:41:05;;;;;;;47.62;29.32;;;;;;;9.20;57.40;102621.22;1700072;84;25827;-78
2022/03/17 10:43:31;;;;;;;53.90;30.12;;;;;;;9.24;57.17;102628.48;1690646;84;25661;-78
2022/03/17 10:46:20;;;;;;;47.90;29.05;;;;;;;9.29;56.78;102625.80;1704061;84;27497;-77
2022/03/17 10:48:56;;;;;;;44.55;27.13;;;;;;;9.33;56.65;102623.22;1706167;83;27146;-78
2022/03/17 10:51:44;;;;;;;45.88;29.18;;;;;;;9.36;55.34;102622.59;1684763;84;26019;-77
2022/03/17 10:54:19;;;;;;;56.90;31.75;;;;;;;9.35;55.46;102624.42;1692287;83;25806;-77
2022/03/17 10:57:11;;;;;;;47.80;29.07;;;;;;;9.37;56.14;102619.78;1684982;84;26043;-77
2022/03/17 10:59:47;;;;;;;46.77;28.30;;;;;;;9.45;56.11;102621.83;1703924;83;29350;-76
2022/03/17 11:02:17;;;;;;;45.65;29.15;;;;;;;9.53;56.26;102621.53;1680312;84;25860;-76
2022/03/17 11:04:46;;;;;;;46.30;28.15;;;;;;;9.64;55.62;102621.95;1681865;85;25795;-76
2022/03/17 11:07:16;;;;;;;47.40;28.65;;;;;;;9.72;55.25;102615.44;1681577;85;25802;-77
2022/03/17 11:09:46;;;;;;;43.58;28.30;;;;;;;9.81;55.94;102616.00;1690016;84;25945;-77
2022/03/17 11:12:17;;;;;;;44.83;26.82;;;;;;;9.88;53.75;102619.84;1680385;84;28368;-77
2022/03/17 11:14:47;;;;;;;40.55;27.02;;;;;;;9.91;54.95;102616.40;1677599;85;25956;-77
2022/03/17 11:17:26;;;;;;;47.67;28.50;;;;;;;9.95;54.46;102615.63;1679862;84;26560;-78
2022/03/17 11:20:04;;;;;;;44.55;26.85;;;;;;;9.97;54.12;102619.02;1692902;84;25873;-77
2022/03/17 11:22:32;;;;;;;34.78;21.05;;;;;;;9.99;54.27;102615.23;1681308;85;26117;-77
2022/03/17 11:25:24;;;;;;;34.33;22.48;;;;;;;10.04;53.27;102619.70;1697887;83;28294;-76
2022/03/17 11:27:56;;;;;;;37.40;24.57;;;;;;;10.09;53.28;102612.61;1680093;85;25773;-77
2022/03/17 11:30:31;;;;;;;35.05;23.22;;;;;;;10.14;52.78;102615.75;1678828;85;25848;-77
2022/03/17 11:32:58;;;;;;;32.73;21.82;;;;;;;10.20;53.42;102619.22;1681334;85;25754;-77